Terminal Aerodrome Forecast
Issued by NWS

Home | Current Version | Previous Version | Text Only | Print | Product List | Glossary Off
Versions: 1 2 3 4 5 6 7 8 9 10 11 12 13 14 15 16 17 18

115
FTUS43 KICT 151720
TAFCNU
TAF
KCNU 151720Z 1518/1618 06006KT 5SM -DZ SCT004 OVC008
      TEMPO 1518/1522 3SM -RA BR OVC004
     FM160300 09008KT 4SM -RA SCT004 OVC008
     FM161600 13008KT 5SM -RA BR SCT008 OVC015=

USA.gov is the U.S. government's official web portal to all federal, state and local government web resources and services.